Border Field (334) Station Data

Red Flag Warning: No
Fire Weather Zone: 243
SDGE Region: Metro
Lat/Lon: 32.542/-117.097

Observations

Time Wind Speed/Gust Temp(F) RH Fuel Moist Fuel Temp(F) Dewpt(F) Tmax(F) Tmin(F) Accum Precip 10-min Precip SL Press(mb)
5/24 8:20am 303 5 G 9 57° 98% - - 57° 59.3° 56.4° - - -
5/24 8:10am 290 5 G 8 57° 98% - - 57° 59.3° 56.4° - - -
5/24 8:00am 299 3 G 5 57° 98% - - 56° 59.3° 56.4° - - -
5/24 7:50am 297 4 G 5 57° 98% - - 56° 59.3° 56.4° - - -
5/24 7:40am 282 3 G 5 57° 98% - - 56° 59.3° 56.4° - - -
5/24 7:30am 310 3 G 5 57° 98% - - 56° 59.3° 56.4° - - -
5/24 7:20am 306 4 G 6 57° 98% - - 56° 59.3° 56.4° - - -
5/24 7:10am 264 4 G 7 57° 98% - - 56° 59.3° 56.4° - - -
5/24 7:00am 276 3 G 7 57° 98% - - 57° 59.3° 56.4° - - -
5/24 6:50am 353 2 G 4 57° 98% - - 57° 59.3° 56.4° - - -
5/24 6:40am 2 2 G 4 57° 98% - - 56° 59.3° 56.4° - - -
5/24 6:20am 258 3 G 5 57° 98% - - 56° 59.3° 56.4° - - -
5/24 6:10am 267 3 G 6 57° 98% - - 56° 59.3° 56.4° - - -
5/24 6:00am 280 1 G 4 57° 98% - - 56° 59.3° 56.4° - - -
5/24 5:50am 310 2 G 5 57° 98% - - 56° 59.3° 56.4° - - -
5/24 5:40am 266 4 G 7 57° 98% - - 56° 59.3° 56.4° - - -
5/24 5:30am 252 7 G 11 57° 98% - - 56° 59.3° 56.5° - - -
5/24 5:20am 253 8 G 12 57° 98% - - 56° 59.3° 56.6° - - -
5/24 5:10am 277 5 G 9 57° 98% - - 57° 59.3° 57° - - -
5/24 5:00am 311 2 G 6 58° 98% - - 57° 59.3° 57° - - -
5/24 4:50am 351 1 G 3 58° 98% - - 57° 59.3° 57° - - -
5/24 4:40am 2 1 G 3 58° 98% - - 57° 59.3° 57° - - -
5/24 4:30am 356 1 G 2 58° 98% - - 57° 59.3° 57° - - -
5/24 4:20am 46 3 G 4 58° 98% - - 57° 59.3° 57° - - -
5/24 4:10am 52 4 G 6 58° 97% - - 57° 59.3° 57° - - -
5/24 4:00am 55 5 G 8 57° 97% - - 57° 59.3° 57° - - -
5/24 3:50am 32 4 G 7 57° 97% - - 57° 59.3° 57° - - -
5/24 3:40am 356 2 G 4 57° 97% - - 56° 59.3° 57° - - -
5/24 3:30am 321 3 G 5 57° 97% - - 57° 59.3° 57° - - -
5/24 3:20am 301 2 G 4 58° 97% - - 57° 59.3° 57.1° - - -
5/24 3:10am 223 2 G 3 58° 97% - - 57° 59.3° 57.4° - - -
5/24 3:00am 245 2 G 4 58° 97% - - 57° 59.3° 57.4° - - -
5/24 2:50am 252 4 G 6 58° 97% - - 57° 59.3° 57.4° - - -
5/24 2:40am 256 6 G 9 58° 97% - - 57° 59.3° 57.5° - - -
5/24 2:30am 250 7 G 10 58° 96% - - 57° 59.3° 57.6° - - -
5/24 2:20am 245 5 G 6 58° 96% - - 57° 59.3° 57.7° - - -
5/24 2:10am 249 5 G 6 58° 96% - - 57° 59.3° 57.7° - - -
5/24 2:00am 248 4 G 6 58° 96% - - 57° 59.3° 58° - - -
5/24 1:50am 262 3 G 6 58° 96% - - 57° 59.3° 58.1° - - -
5/24 1:40am 263 3 G 5 59° 96% - - 57° 59.3° 58.2° - - -
5/24 1:30am 270 3 G 4 59° 96% - - 57° 59.3° 58.2° - - -
5/24 1:20am 242 3 G 4 58° 95% - - 57° 59.3° 58.2° - - -
5/24 1:10am 280 1 G 4 59° 95% - - 57° 59.3° 58.3° - - -
5/24 1:00am 287 2 G 4 59° 95% - - 57° 59.3° 58.3° - - -
5/24 12:50am 291 2 G 4 59° 95% - - 57° 59.3° 58.4° - - -
5/24 12:40am 301 2 G 4 59° 95% - - 57° 59.3° 58.5° - - -
5/24 12:30am 307 2 G 4 59° 95% - - 57° 59.3° 58.5° - - -
5/24 12:20am 297 3 G 4 59° 95% - - 57° 59.3° 58.5° - - -
5/24 12:10am 288 3 G 4 59° 94% - - 57° 59.3° 58.6° - - -
5/24 12:00am 312 3 G 6 59° 94% - - 57° 71.7° 57.4° - - -
5/23 11:50pm 330 3 G 4 59° 94% - - 57° 71.7° 57.4° - - -
5/23 11:40pm 280 3 G 5 59° 94% - - 57° 71.7° 57.4° - - -
5/23 11:30pm 268 4 G 6 59° 95% - - 58° 71.7° 57.4° - - -
5/23 11:20pm 261 4 G 6 59° 95% - - 58° 71.7° 57.4° - - -
5/23 11:10pm 262 5 G 7 59° 95% - - 58° 71.7° 57.4° - - -
5/23 11:00pm 255 7 G 10 59° 95% - - 58° 71.7° 57.4° - - -
5/23 10:50pm 253 5 G 8 59° 96% - - 58° 71.7° 57.4° - - -
5/23 10:40pm 255 4 G 6 59° 96% - - 58° 71.7° 57.4° - - -
5/23 10:30pm 271 4 G 7 59° 96% - - 58° 71.7° 57.4° - - -
5/23 10:20pm 284 4 G 5 59° 96% - - 58° 71.7° 57.4° - - -
5/23 10:10pm 292 4 G 6 59° 96% - - 58° 71.7° 57.4° - - -
5/23 10:00pm 282 4 G 7 59° 96% - - 58° 71.7° 57.4° - - -
5/23 9:50pm 291 3 G 5 59° 96% - - 58° 71.7° 57.4° - - -
5/23 9:40pm 311 3 G 5 59° 96% - - 58° 71.7° 57.4° - - -
5/23 9:30pm 309 3 G 6 59° 96% - - 58° 71.7° 57.4° - - -
5/23 9:20pm 290 5 G 7 59° 95% - - 58° 71.7° 57.4° - - -
5/23 9:10pm 280 4 G 6 59° 95% - - 58° 71.7° 57.4° - - -
5/23 9:00pm 254 2 G 4 59° 95% - - 58° 71.7° 57.4° - - -
5/23 8:50pm 257 3 G 5 59° 96% - - 58° 71.7° 57.4° - - -
5/23 8:40pm 248 4 G 6 59° 96% - - 58° 71.7° 57.4° - - -
5/23 8:30pm 253 5 G 7 59° 96% - - 58° 71.7° 57.4° - - -
5/23 8:20pm 257 5 G 8 59° 95% - - 58° 71.7° 57.4° - - -
5/23 8:10pm 270 6 G 9 60° 95% - - 58° 71.7° 57.4° - - -
5/23 8:00pm 271 6 G 10 59° 94% - - 58° 71.7° 57.4° - - -
5/23 7:50pm 259 5 G 10 60° 94% - - 58° 71.7° 57.4° - - -
5/23 7:40pm 256 6 G 8 60° 93% - - 58° 71.7° 57.4° - - -
5/23 7:30pm 254 7 G 9 60° 91% - - 58° 71.7° 57.4° - - -
5/23 7:20pm 256 6 G 9 61° 91% - - 58° 71.7° 57.4° - - -
5/23 7:10pm 253 7 G 10 61° 90% - - 58° 71.7° 57.4° - - -
5/23 7:00pm 254 8 G 11 61° 90% - - 58° 71.7° 57.4° - - -
5/23 6:50pm 269 8 G 11 62° 90% - - 59° 71.7° 57.4° - - -
5/23 6:40pm 265 8 G 13 62° 90% - - 59° 71.7° 57.4° - - -
5/23 6:30pm 254 9 G 13 62° 89% - - 59° 71.7° 57.4° - - -
5/23 6:20pm 257 8 G 13 62° 87% - - 58° 71.7° 57.4° - - -
5/23 6:10pm 255 10 G 13 62° 87% - - 58° 71.7° 57.4° - - -
5/23 6:00pm 256 11 G 15 61° 87% - - 58° 71.7° 57.4° - - -
5/23 5:50pm 252 12 G 15 62° 86% - - 58° 71.7° 57.4° - - -
5/23 5:40pm 252 12 G 15 61° 87% - - 58° 71.7° 57.4° - - -
5/23 5:30pm 252 11 G 14 62° 84% - - 57° 71.7° 57.4° - - -
5/23 5:20pm 254 8 G 12 63° 80% - - 57° 71.7° 57.4° - - -
5/23 5:10pm 264 8 G 12 64° 79% - - 57° 71.7° 57.4° - - -
5/23 5:00pm 283 8 G 12 63° 80% - - 57° 71.7° 57.4° - - -
5/23 4:50pm 279 8 G 13 64° 77% - - 57° 71.7° 57.4° - - -
5/23 4:40pm 290 9 G 13 63° 79% - - 57° 71.7° 57.4° - - -
5/23 4:30pm 287 9 G 14 63° 80% - - 57° 71.7° 57.4° - - -
5/23 4:20pm 283 10 G 15 62° 81% - - 56° 71.7° 57.4° - - -
5/23 4:10pm 288 10 G 14 63° 81% - - 57° 71.7° 57.4° - - -
5/23 4:00pm 282 11 G 15 62° 81% - - 56° 71.7° 57.4° - - -
5/23 3:50pm 284 10 G 14 63° 81% - - 57° 71.7° 57.4° - - -
5/23 3:40pm 285 9 G 14 63° 82% - - 57° 71.7° 57.4° - - -
5/23 3:30pm 285 8 G 12 63° 81% - - 57° 71.7° 57.4° - - -
5/23 3:20pm 282 8 G 14 62° 83% - - 56° 71.7° 57.4° - - -
5/23 3:10pm 269 9 G 13 62° 82% - - 57° 71.7° 57.4° - - -
5/23 3:00pm 276 10 G 14 62° 81% - - 57° 71.7° 57.4° - - -
5/23 2:50pm 273 9 G 14 63° 81% - - 57° 71.7° 57.4° - - -
5/23 2:40pm 282 8 G 14 63° 81% - - 57° 71.7° 57.4° - - -
5/23 2:30pm 301 7 G 11 63° 80% - - 57° 71.7° 57.4° - - -
5/23 2:20pm 296 8 G 12 63° 82% - - 57° 71.7° 57.4° - - -
5/23 2:10pm 298 7 G 11 62° 83% - - 57° 71.7° 57.4° - - -
5/23 2:00pm 294 7 G 13 62° 84% - - 57° 71.7° 57.4° - - -
5/23 1:50pm 296 8 G 14 61° 85% - - 57° 71.7° 57.4° - - -
5/23 1:40pm 293 11 G 17 61° 87% - - 57° 71.7° 57.4° - - -
5/23 1:30pm 283 12 G 17 61° 87% - - 57° 71.7° 57.4° - - -
5/23 1:20pm 285 11 G 15 61° 87% - - 57° 71.7° 57.4° - - -
5/23 1:10pm 294 11 G 16 61° 88% - - 58° 71.7° 57.4° - - -
5/23 1:00pm 288 11 G 15 61° 89% - - 58° 71.7° 57.4° - - -
5/23 12:50pm 283 10 G 15 61° 88% - - 58° 71.7° 57.4° - - -
5/23 12:40pm 300 10 G 15 62° 86% - - 58° 71.7° 57.4° - - -
5/23 12:30pm 301 11 G 15 62° 87% - - 58° 71.7° 57.4° - - -
5/23 12:20pm 281 11 G 15 61° 88% - - 58° 71.7° 57.4° - - -
5/23 12:10pm 282 11 G 16 62° 87% - - 58° 71.7° 57.4° - - -
5/23 12:00pm 278 10 G 16 62° 86% - - 58° 71.7° 57.4° - - -
5/23 11:50am 281 11 G 16 62° 87% - - 58° 71.7° 57.4° - - -
5/23 11:40am 268 11 G 16 62° 87% - - 58° 71.7° 57.4° - - -
5/23 11:30am 270 11 G 17 62° 88% - - 58° 71.7° 57.4° - - -
5/23 11:20am 273 12 G 17 62° 88% - - 58° 71.7° 57.4° - - -
5/23 11:10am 272 11 G 15 62° 89% - - 59° 71.7° 57.4° - - -
5/23 11:00am 255 12 G 17 61° 91% - - 59° 71.7° 57.4° - - -
5/23 10:50am 256 14 G 19 61° 91% - - 59° 71.7° 57.4° - - -
5/23 10:40am 253 13 G 17 61° 91% - - 58° 71.7° 57.4° - - -
5/23 10:30am 253 12 G 16 61° 91% - - 58° 71.7° 57.4° - - -
5/23 10:20am 248 12 G 15 62° 89% - - 58° 71.7° 57.4° - - -
5/23 10:10am 257 12 G 16 63° 85% - - 58° 71.7° 57.4° - - -
5/23 10:00am 260 9 G 13 64° 81% - - 59° 71.7° 57.4° - - -
5/23 9:50am 273 9 G 12 65° 80% - - 59° 71.7° 57.4° - - -
5/23 9:40am 279 7 G 11 68° 71% - - 59° 71.7° 57.4° - - -
5/23 9:30am 355 3 G 7 70° 67% - - 59° 71.7° 57.4° - - -
5/23 9:20am 42 4 G 7 69° 69% - - 58° 70.1° 57.4° - - -
5/23 9:10am 28 4 G 9 68° 71% - - 58° 69.1° 57.4° - - -
5/23 9:00am 67 6 G 9 67° 74% - - 58° 67.1° 57.4° - - -
5/23 8:50am 50 7 G 10 65° 79% - - 58° 66.2° 57.4° - - -
5/23 8:40am 63 6 G 10 64° 82% - - 58° 65.2° 57.4° - - -
5/23 8:30am 49 6 G 9 63° 83% - - 58° 64.2° 57.4° - - -
5/23 8:20am 52 7 G 10 62° 86% - - 58° 62.9° 57.4° - - -
5/23 8:10am 60 5 G 8 61° 88% - - 58° 62° 57.4° - - -
5/23 8:00am 58 5 G 8 60° 91% - - 57° 61.2° 57.4° - - -
5/23 7:50am 74 5 G 8 60° 93% - - 58° 60.4° 57.4° - - -
5/23 7:40am 64 6 G 10 59° 94% - - 57° 59.7° 57.4° - - -
5/23 7:30am 73 7 G 10 59° 95% - - 57° 59.7° 57.4° - - -
5/23 7:20am 77 6 G 9 59° 95% - - 57° 59.7° 57.4° - - -
5/23 7:10am 72 7 G 10 59° 95% - - 57° 59.7° 57.4° - - -
5/23 7:00am 63 7 G 10 59° 96% - - 58° 59.7° 57.4° - - -
5/23 6:50am 64 5 G 7 59° 96% - - 57° 59.7° 57.4° - - -
5/23 6:40am 46 3 G 5 58° 96% - - 57° 59.7° 57.4° - - -
5/23 6:30am 36 3 G 6 58° 96% - - 57° 59.7° 57.4° - - -
5/23 6:20am 37 2 G 7 58° 96% - - 57° 59.7° 57.4° - - -
5/23 6:10am 19 2 G 4 58° 96% - - 57° 59.7° 57.4° - - -
5/23 6:00am 39 3 G 6 58° 96% - - 57° 59.7° 57.4° - - -